<?xml version="1.0" encoding="UTF-8" standalone="no" ?>
<gpx xmlns="http://www.topografix.com/GPX/1/1" xmlns:xsi="http://www.w3.org/2001/XMLSchema-instance" xsi:schemaLocation="http://www.topografix.com/GPX/1/1 http://www.topografix.com/GPX/1/1/gpx.xsd" version="1.1" creator="VisuGPX - https://www.visugpx.com">
  <metadata>
    <name>Home - Orsay - Home</name>
    <desc><![CDATA[Le tour du lac de Lozère]]></desc>
  </metadata>
  <trk>
    <name><![CDATA[Home - Orsay - Home]]></name>
    <trkseg>
      <trkpt lat="48.70363" lon="2.21572">
        <ele>67</ele>
        <time>2016-04-26T19:48:08.000Z</time>
      </trkpt>
      <trkpt lat="48.70364" lon="2.21562">
        <ele>68</ele>
        <time>2016-04-26T19:48:14.000Z</time>
      </trkpt>
      <trkpt lat="48.70366" lon="2.21558">
        <ele>68</ele>
        <time>2016-04-26T19:48:18.000Z</time>
      </trkpt>
      <trkpt lat="48.70363" lon="2.2153">
        <ele>68</ele>
        <time>2016-04-26T19:48:34.000Z</time>
      </trkpt>
      <trkpt lat="48.70358" lon="2.21502">
        <ele>67</ele>
        <time>2016-04-26T19:48:48.000Z</time>
      </trkpt>
      <trkpt lat="48.70363" lon="2.21473">
        <ele>68</ele>
        <time>2016-04-26T19:49:05.000Z</time>
      </trkpt>
      <trkpt lat="48.70357" lon="2.21447">
        <ele>68</ele>
        <time>2016-04-26T19:49:20.000Z</time>
      </trkpt>
      <trkpt lat="48.70351" lon="2.2142">
        <ele>66</ele>
        <time>2016-04-26T19:49:34.000Z</time>
      </trkpt>
      <trkpt lat="48.70345" lon="2.21393">
        <ele>66</ele>
        <time>2016-04-26T19:49:48.000Z</time>
      </trkpt>
      <trkpt lat="48.70343" lon="2.21365">
        <ele>66</ele>
        <time>2016-04-26T19:50:03.000Z</time>
      </trkpt>
      <trkpt lat="48.70339" lon="2.21338">
        <ele>63</ele>
        <time>2016-04-26T19:50:17.000Z</time>
      </trkpt>
      <trkpt lat="48.70337" lon="2.21311">
        <ele>64</ele>
        <time>2016-04-26T19:50:30.000Z</time>
      </trkpt>
      <trkpt lat="48.70327" lon="2.21287">
        <ele>59</ele>
        <time>2016-04-26T19:50:44.000Z</time>
      </trkpt>
      <trkpt lat="48.70314" lon="2.21266">
        <ele>59</ele>
        <time>2016-04-26T19:50:58.000Z</time>
      </trkpt>
      <trkpt lat="48.70302" lon="2.21246">
        <ele>58</ele>
        <time>2016-04-26T19:51:11.000Z</time>
      </trkpt>
      <trkpt lat="48.70292" lon="2.21221">
        <ele>58</ele>
        <time>2016-04-26T19:51:26.000Z</time>
      </trkpt>
      <trkpt lat="48.70285" lon="2.21196">
        <ele>58</ele>
        <time>2016-04-26T19:51:38.000Z</time>
      </trkpt>
      <trkpt lat="48.70282" lon="2.21169">
        <ele>57</ele>
        <time>2016-04-26T19:51:51.000Z</time>
      </trkpt>
      <trkpt lat="48.70279" lon="2.21141">
        <ele>58</ele>
        <time>2016-04-26T19:52:05.000Z</time>
      </trkpt>
      <trkpt lat="48.70276" lon="2.21114">
        <ele>58</ele>
        <time>2016-04-26T19:52:20.000Z</time>
      </trkpt>
      <trkpt lat="48.70277" lon="2.21086">
        <ele>58</ele>
        <time>2016-04-26T19:52:34.000Z</time>
      </trkpt>
      <trkpt lat="48.70276" lon="2.21057">
        <ele>58</ele>
        <time>2016-04-26T19:52:49.000Z</time>
      </trkpt>
      <trkpt lat="48.70275" lon="2.21028">
        <ele>58</ele>
        <time>2016-04-26T19:53:04.000Z</time>
      </trkpt>
      <trkpt lat="48.70269" lon="2.21004">
        <ele>56</ele>
        <time>2016-04-26T19:53:19.000Z</time>
      </trkpt>
      <trkpt lat="48.70251" lon="2.20997">
        <ele>54</ele>
        <time>2016-04-26T19:53:34.000Z</time>
      </trkpt>
      <trkpt lat="48.70232" lon="2.20996">
        <ele>55</ele>
        <time>2016-04-26T19:53:49.000Z</time>
      </trkpt>
      <trkpt lat="48.70222" lon="2.20993">
        <ele>55</ele>
        <time>2016-04-26T19:53:56.000Z</time>
      </trkpt>
      <trkpt lat="48.70225" lon="2.20967">
        <ele>55</ele>
        <time>2016-04-26T19:54:10.000Z</time>
      </trkpt>
      <trkpt lat="48.70232" lon="2.2094">
        <ele>55</ele>
        <time>2016-04-26T19:54:24.000Z</time>
      </trkpt>
      <trkpt lat="48.70235" lon="2.20913">
        <ele>55</ele>
        <time>2016-04-26T19:54:38.000Z</time>
      </trkpt>
      <trkpt lat="48.70241" lon="2.20887">
        <ele>56</ele>
        <time>2016-04-26T19:54:53.000Z</time>
      </trkpt>
      <trkpt lat="48.70246" lon="2.20859">
        <ele>56</ele>
        <time>2016-04-26T19:55:07.000Z</time>
      </trkpt>
      <trkpt lat="48.7025" lon="2.20831">
        <ele>56</ele>
        <time>2016-04-26T19:55:21.000Z</time>
      </trkpt>
      <trkpt lat="48.70258" lon="2.20806">
        <ele>55</ele>
        <time>2016-04-26T19:55:34.000Z</time>
      </trkpt>
      <trkpt lat="48.70264" lon="2.20778">
        <ele>55</ele>
        <time>2016-04-26T19:55:49.000Z</time>
      </trkpt>
      <trkpt lat="48.70267" lon="2.20751">
        <ele>55</ele>
        <time>2016-04-26T19:56:03.000Z</time>
      </trkpt>
      <trkpt lat="48.70268" lon="2.20745">
        <ele>55</ele>
        <time>2016-04-26T19:56:06.000Z</time>
      </trkpt>
      <trkpt lat="48.70275" lon="2.2072">
        <ele>55</ele>
        <time>2016-04-26T19:56:19.000Z</time>
      </trkpt>
      <trkpt lat="48.70282" lon="2.20693">
        <ele>55</ele>
        <time>2016-04-26T19:56:32.000Z</time>
      </trkpt>
      <trkpt lat="48.70288" lon="2.20668">
        <ele>55</ele>
        <time>2016-04-26T19:56:45.000Z</time>
      </trkpt>
      <trkpt lat="48.70288" lon="2.20665">
        <ele>55</ele>
        <time>2016-04-26T19:56:46.000Z</time>
      </trkpt>
      <trkpt lat="48.70289" lon="2.20658">
        <ele>55</ele>
        <time>2016-04-26T19:56:50.000Z</time>
      </trkpt>
      <trkpt lat="48.70294" lon="2.20632">
        <ele>56</ele>
        <time>2016-04-26T19:57:04.000Z</time>
      </trkpt>
      <trkpt lat="48.70299" lon="2.20605">
        <ele>55</ele>
        <time>2016-04-26T19:57:18.000Z</time>
      </trkpt>
      <trkpt lat="48.70301" lon="2.20578">
        <ele>56</ele>
        <time>2016-04-26T19:57:31.000Z</time>
      </trkpt>
      <trkpt lat="48.70297" lon="2.20552">
        <ele>56</ele>
        <time>2016-04-26T19:57:44.000Z</time>
      </trkpt>
      <trkpt lat="48.70292" lon="2.20525">
        <ele>56</ele>
        <time>2016-04-26T19:57:59.000Z</time>
      </trkpt>
      <trkpt lat="48.70286" lon="2.20498">
        <ele>56</ele>
        <time>2016-04-26T19:58:14.000Z</time>
      </trkpt>
      <trkpt lat="48.7028" lon="2.20472">
        <ele>55</ele>
        <time>2016-04-26T19:58:28.000Z</time>
      </trkpt>
      <trkpt lat="48.70274" lon="2.20444">
        <ele>55</ele>
        <time>2016-04-26T19:58:42.000Z</time>
      </trkpt>
      <trkpt lat="48.70265" lon="2.2042">
        <ele>55</ele>
        <time>2016-04-26T19:58:56.000Z</time>
      </trkpt>
      <trkpt lat="48.70254" lon="2.20397">
        <ele>54</ele>
        <time>2016-04-26T19:59:10.000Z</time>
      </trkpt>
      <trkpt lat="48.70248" lon="2.2037">
        <ele>54</ele>
        <time>2016-04-26T19:59:24.000Z</time>
      </trkpt>
      <trkpt lat="48.70246" lon="2.20361">
        <ele>54</ele>
        <time>2016-04-26T19:59:28.000Z</time>
      </trkpt>
      <trkpt lat="48.70237" lon="2.20337">
        <ele>54</ele>
        <time>2016-04-26T19:59:41.000Z</time>
      </trkpt>
      <trkpt lat="48.70232" lon="2.2031">
        <ele>54</ele>
        <time>2016-04-26T19:59:56.000Z</time>
      </trkpt>
      <trkpt lat="48.70226" lon="2.20284">
        <ele>54</ele>
        <time>2016-04-26T20:00:09.000Z</time>
      </trkpt>
      <trkpt lat="48.70222" lon="2.20257">
        <ele>54</ele>
        <time>2016-04-26T20:00:23.000Z</time>
      </trkpt>
      <trkpt lat="48.70217" lon="2.20229">
        <ele>54</ele>
        <time>2016-04-26T20:00:38.000Z</time>
      </trkpt>
      <trkpt lat="48.7021" lon="2.20203">
        <ele>54</ele>
        <time>2016-04-26T20:00:50.000Z</time>
      </trkpt>
      <trkpt lat="48.70204" lon="2.20176">
        <ele>54</ele>
        <time>2016-04-26T20:01:05.000Z</time>
      </trkpt>
      <trkpt lat="48.70198" lon="2.20149">
        <ele>54</ele>
        <time>2016-04-26T20:01:18.000Z</time>
      </trkpt>
      <trkpt lat="48.70193" lon="2.20121">
        <ele>54</ele>
        <time>2016-04-26T20:01:32.000Z</time>
      </trkpt>
      <trkpt lat="48.70187" lon="2.20095">
        <ele>55</ele>
        <time>2016-04-26T20:01:46.000Z</time>
      </trkpt>
      <trkpt lat="48.70181" lon="2.20068">
        <ele>55</ele>
        <time>2016-04-26T20:01:58.000Z</time>
      </trkpt>
      <trkpt lat="48.70176" lon="2.20042">
        <ele>55</ele>
        <time>2016-04-26T20:02:11.000Z</time>
      </trkpt>
      <trkpt lat="48.70172" lon="2.20016">
        <ele>56</ele>
        <time>2016-04-26T20:02:27.000Z</time>
      </trkpt>
      <trkpt lat="48.70165" lon="2.19989">
        <ele>56</ele>
        <time>2016-04-26T20:02:42.000Z</time>
      </trkpt>
      <trkpt lat="48.7016" lon="2.19964">
        <ele>56</ele>
        <time>2016-04-26T20:02:55.000Z</time>
      </trkpt>
      <trkpt lat="48.70155" lon="2.19938">
        <ele>56</ele>
        <time>2016-04-26T20:03:09.000Z</time>
      </trkpt>
      <trkpt lat="48.70149" lon="2.19912">
        <ele>56</ele>
        <time>2016-04-26T20:03:20.000Z</time>
      </trkpt>
      <trkpt lat="48.70142" lon="2.19887">
        <ele>57</ele>
        <time>2016-04-26T20:03:32.000Z</time>
      </trkpt>
      <trkpt lat="48.70136" lon="2.1986">
        <ele>57</ele>
        <time>2016-04-26T20:03:46.000Z</time>
      </trkpt>
      <trkpt lat="48.7013" lon="2.19832">
        <ele>56</ele>
        <time>2016-04-26T20:04:00.000Z</time>
      </trkpt>
      <trkpt lat="48.70123" lon="2.19805">
        <ele>56</ele>
        <time>2016-04-26T20:04:13.000Z</time>
      </trkpt>
      <trkpt lat="48.7012" lon="2.19777">
        <ele>56</ele>
        <time>2016-04-26T20:04:29.000Z</time>
      </trkpt>
      <trkpt lat="48.70114" lon="2.1975">
        <ele>55</ele>
        <time>2016-04-26T20:04:43.000Z</time>
      </trkpt>
      <trkpt lat="48.70107" lon="2.19723">
        <ele>54</ele>
        <time>2016-04-26T20:04:57.000Z</time>
      </trkpt>
      <trkpt lat="48.70102" lon="2.19696">
        <ele>54</ele>
        <time>2016-04-26T20:05:11.000Z</time>
      </trkpt>
      <trkpt lat="48.70097" lon="2.19668">
        <ele>54</ele>
        <time>2016-04-26T20:05:24.000Z</time>
      </trkpt>
      <trkpt lat="48.70092" lon="2.1964">
        <ele>55</ele>
        <time>2016-04-26T20:05:39.000Z</time>
      </trkpt>
      <trkpt lat="48.70087" lon="2.19613">
        <ele>55</ele>
        <time>2016-04-26T20:05:53.000Z</time>
      </trkpt>
      <trkpt lat="48.70082" lon="2.19587">
        <ele>55</ele>
        <time>2016-04-26T20:06:06.000Z</time>
      </trkpt>
      <trkpt lat="48.70072" lon="2.19562">
        <ele>57</ele>
        <time>2016-04-26T20:06:19.000Z</time>
      </trkpt>
      <trkpt lat="48.7007" lon="2.19535">
        <ele>58</ele>
        <time>2016-04-26T20:06:31.000Z</time>
      </trkpt>
      <trkpt lat="48.70068" lon="2.19507">
        <ele>58</ele>
        <time>2016-04-26T20:06:44.000Z</time>
      </trkpt>
      <trkpt lat="48.70065" lon="2.19479">
        <ele>58</ele>
        <time>2016-04-26T20:06:58.000Z</time>
      </trkpt>
      <trkpt lat="48.70062" lon="2.19451">
        <ele>58</ele>
        <time>2016-04-26T20:07:12.000Z</time>
      </trkpt>
      <trkpt lat="48.70059" lon="2.19423">
        <ele>59</ele>
        <time>2016-04-26T20:07:26.000Z</time>
      </trkpt>
      <trkpt lat="48.70058" lon="2.19394">
        <ele>59</ele>
        <time>2016-04-26T20:07:41.000Z</time>
      </trkpt>
      <trkpt lat="48.70057" lon="2.19366">
        <ele>59</ele>
        <time>2016-04-26T20:07:56.000Z</time>
      </trkpt>
      <trkpt lat="48.7006" lon="2.19339">
        <ele>59</ele>
        <time>2016-04-26T20:08:10.000Z</time>
      </trkpt>
      <trkpt lat="48.7006" lon="2.19309">
        <ele>60</ele>
        <time>2016-04-26T20:08:23.000Z</time>
      </trkpt>
      <trkpt lat="48.70058" lon="2.19284">
        <ele>60</ele>
        <time>2016-04-26T20:08:37.000Z</time>
      </trkpt>
      <trkpt lat="48.70059" lon="2.19255">
        <ele>60</ele>
        <time>2016-04-26T20:08:49.000Z</time>
      </trkpt>
      <trkpt lat="48.70055" lon="2.19228">
        <ele>61</ele>
        <time>2016-04-26T20:09:02.000Z</time>
      </trkpt>
      <trkpt lat="48.70055" lon="2.192">
        <ele>60</ele>
        <time>2016-04-26T20:09:16.000Z</time>
      </trkpt>
      <trkpt lat="48.70057" lon="2.19171">
        <ele>60</ele>
        <time>2016-04-26T20:09:31.000Z</time>
      </trkpt>
      <trkpt lat="48.70056" lon="2.19161">
        <ele>60</ele>
        <time>2016-04-26T20:09:37.000Z</time>
      </trkpt>
      <trkpt lat="48.70054" lon="2.19134">
        <ele>60</ele>
        <time>2016-04-26T20:09:50.000Z</time>
      </trkpt>
      <trkpt lat="48.70051" lon="2.19105">
        <ele>60</ele>
        <time>2016-04-26T20:10:03.000Z</time>
      </trkpt>
      <trkpt lat="48.70049" lon="2.19076">
        <ele>60</ele>
        <time>2016-04-26T20:10:16.000Z</time>
      </trkpt>
      <trkpt lat="48.7005" lon="2.19056">
        <ele>61</ele>
        <time>2016-04-26T20:10:26.000Z</time>
      </trkpt>
      <trkpt lat="48.7005" lon="2.19028">
        <ele>61</ele>
        <time>2016-04-26T20:10:38.000Z</time>
      </trkpt>
      <trkpt lat="48.7005" lon="2.19">
        <ele>61</ele>
        <time>2016-04-26T20:10:51.000Z</time>
      </trkpt>
      <trkpt lat="48.7005" lon="2.18972">
        <ele>61</ele>
        <time>2016-04-26T20:11:03.000Z</time>
      </trkpt>
      <trkpt lat="48.7005" lon="2.18946">
        <ele>60</ele>
        <time>2016-04-26T20:11:17.000Z</time>
      </trkpt>
      <trkpt lat="48.70047" lon="2.18917">
        <ele>60</ele>
        <time>2016-04-26T20:11:31.000Z</time>
      </trkpt>
      <trkpt lat="48.70044" lon="2.1889">
        <ele>60</ele>
        <time>2016-04-26T20:11:44.000Z</time>
      </trkpt>
      <trkpt lat="48.70043" lon="2.18861">
        <ele>60</ele>
        <time>2016-04-26T20:11:58.000Z</time>
      </trkpt>
      <trkpt lat="48.70042" lon="2.18834">
        <ele>60</ele>
        <time>2016-04-26T20:12:11.000Z</time>
      </trkpt>
      <trkpt lat="48.7004" lon="2.18811">
        <ele>60</ele>
        <time>2016-04-26T20:12:25.000Z</time>
      </trkpt>
      <trkpt lat="48.70043" lon="2.18802">
        <ele>60</ele>
        <time>2016-04-26T20:12:30.000Z</time>
      </trkpt>
      <trkpt lat="48.7004" lon="2.18775">
        <ele>61</ele>
        <time>2016-04-26T20:12:41.000Z</time>
      </trkpt>
      <trkpt lat="48.70044" lon="2.18747">
        <ele>62</ele>
        <time>2016-04-26T20:12:54.000Z</time>
      </trkpt>
      <trkpt lat="48.70048" lon="2.1872">
        <ele>62</ele>
        <time>2016-04-26T20:13:08.000Z</time>
      </trkpt>
      <trkpt lat="48.70053" lon="2.18693">
        <ele>63</ele>
        <time>2016-04-26T20:13:22.000Z</time>
      </trkpt>
      <trkpt lat="48.70056" lon="2.18665">
        <ele>63</ele>
        <time>2016-04-26T20:13:37.000Z</time>
      </trkpt>
      <trkpt lat="48.70049" lon="2.18639">
        <ele>63</ele>
        <time>2016-04-26T20:13:49.000Z</time>
      </trkpt>
      <trkpt lat="48.70038" lon="2.18617">
        <ele>63</ele>
        <time>2016-04-26T20:14:06.000Z</time>
      </trkpt>
      <trkpt lat="48.70028" lon="2.18604">
        <ele>63</ele>
        <time>2016-04-26T20:14:16.000Z</time>
      </trkpt>
      <trkpt lat="48.70024" lon="2.18577">
        <ele>62</ele>
        <time>2016-04-26T20:14:27.000Z</time>
      </trkpt>
      <trkpt lat="48.70023" lon="2.18548">
        <ele>62</ele>
        <time>2016-04-26T20:14:40.000Z</time>
      </trkpt>
      <trkpt lat="48.70026" lon="2.1852">
        <ele>62</ele>
        <time>2016-04-26T20:14:55.000Z</time>
      </trkpt>
      <trkpt lat="48.70027" lon="2.18514">
        <ele>62</ele>
        <time>2016-04-26T20:14:59.000Z</time>
      </trkpt>
      <trkpt lat="48.70029" lon="2.18486">
        <ele>61</ele>
        <time>2016-04-26T20:15:15.000Z</time>
      </trkpt>
      <trkpt lat="48.70026" lon="2.18458">
        <ele>61</ele>
        <time>2016-04-26T20:15:27.000Z</time>
      </trkpt>
      <trkpt lat="48.70024" lon="2.1843">
        <ele>60</ele>
        <time>2016-04-26T20:15:39.000Z</time>
      </trkpt>
      <trkpt lat="48.70015" lon="2.18404">
        <ele>59</ele>
        <time>2016-04-26T20:15:52.000Z</time>
      </trkpt>
      <trkpt lat="48.70001" lon="2.18387">
        <ele>59</ele>
        <time>2016-04-26T20:16:05.000Z</time>
      </trkpt>
      <trkpt lat="48.69982" lon="2.18391">
        <ele>59</ele>
        <time>2016-04-26T20:16:20.000Z</time>
      </trkpt>
      <trkpt lat="48.69969" lon="2.1841">
        <ele>59</ele>
        <time>2016-04-26T20:16:34.000Z</time>
      </trkpt>
      <trkpt lat="48.69963" lon="2.18437">
        <ele>61</ele>
        <time>2016-04-26T20:16:51.000Z</time>
      </trkpt>
      <trkpt lat="48.69962" lon="2.18465">
        <ele>62</ele>
        <time>2016-04-26T20:17:06.000Z</time>
      </trkpt>
      <trkpt lat="48.69964" lon="2.18493">
        <ele>62</ele>
        <time>2016-04-26T20:17:19.000Z</time>
      </trkpt>
      <trkpt lat="48.69964" lon="2.1852">
        <ele>64</ele>
        <time>2016-04-26T20:17:33.000Z</time>
      </trkpt>
      <trkpt lat="48.69967" lon="2.18536">
        <ele>64</ele>
        <time>2016-04-26T20:17:42.000Z</time>
      </trkpt>
      <trkpt lat="48.69982" lon="2.18554">
        <ele>64</ele>
        <time>2016-04-26T20:17:54.000Z</time>
      </trkpt>
      <trkpt lat="48.69999" lon="2.18568">
        <ele>64</ele>
        <time>2016-04-26T20:18:09.000Z</time>
      </trkpt>
      <trkpt lat="48.70016" lon="2.18581">
        <ele>62</ele>
        <time>2016-04-26T20:18:22.000Z</time>
      </trkpt>
      <trkpt lat="48.70033" lon="2.18595">
        <ele>63</ele>
        <time>2016-04-26T20:18:35.000Z</time>
      </trkpt>
      <trkpt lat="48.70045" lon="2.18615">
        <ele>63</ele>
        <time>2016-04-26T20:18:49.000Z</time>
      </trkpt>
      <trkpt lat="48.70053" lon="2.18639">
        <ele>63</ele>
        <time>2016-04-26T20:19:03.000Z</time>
      </trkpt>
      <trkpt lat="48.70058" lon="2.18667">
        <ele>63</ele>
        <time>2016-04-26T20:19:15.000Z</time>
      </trkpt>
      <trkpt lat="48.70052" lon="2.18694">
        <ele>63</ele>
        <time>2016-04-26T20:19:29.000Z</time>
      </trkpt>
      <trkpt lat="48.70047" lon="2.18721">
        <ele>62</ele>
        <time>2016-04-26T20:19:45.000Z</time>
      </trkpt>
      <trkpt lat="48.70047" lon="2.18751">
        <ele>61</ele>
        <time>2016-04-26T20:19:57.000Z</time>
      </trkpt>
      <trkpt lat="48.70047" lon="2.1878">
        <ele>61</ele>
        <time>2016-04-26T20:20:11.000Z</time>
      </trkpt>
      <trkpt lat="48.70045" lon="2.18808">
        <ele>60</ele>
        <time>2016-04-26T20:20:24.000Z</time>
      </trkpt>
      <trkpt lat="48.70044" lon="2.18818">
        <ele>60</ele>
        <time>2016-04-26T20:20:31.000Z</time>
      </trkpt>
      <trkpt lat="48.70044" lon="2.1883">
        <ele>60</ele>
        <time>2016-04-26T20:20:39.000Z</time>
      </trkpt>
      <trkpt lat="48.70047" lon="2.1884">
        <ele>60</ele>
        <time>2016-04-26T20:20:42.000Z</time>
      </trkpt>
      <trkpt lat="48.70053" lon="2.18866">
        <ele>60</ele>
        <time>2016-04-26T20:20:53.000Z</time>
      </trkpt>
      <trkpt lat="48.70054" lon="2.18895">
        <ele>60</ele>
        <time>2016-04-26T20:21:07.000Z</time>
      </trkpt>
      <trkpt lat="48.70055" lon="2.18923">
        <ele>60</ele>
        <time>2016-04-26T20:21:20.000Z</time>
      </trkpt>
      <trkpt lat="48.70056" lon="2.18927">
        <ele>60</ele>
        <time>2016-04-26T20:21:22.000Z</time>
      </trkpt>
      <trkpt lat="48.7006" lon="2.18954">
        <ele>61</ele>
        <time>2016-04-26T20:21:35.000Z</time>
      </trkpt>
      <trkpt lat="48.70058" lon="2.18982">
        <ele>61</ele>
        <time>2016-04-26T20:21:49.000Z</time>
      </trkpt>
      <trkpt lat="48.70058" lon="2.1901">
        <ele>61</ele>
        <time>2016-04-26T20:22:02.000Z</time>
      </trkpt>
      <trkpt lat="48.70058" lon="2.19031">
        <ele>61</ele>
        <time>2016-04-26T20:22:12.000Z</time>
      </trkpt>
      <trkpt lat="48.70057" lon="2.1906">
        <ele>61</ele>
        <time>2016-04-26T20:22:27.000Z</time>
      </trkpt>
      <trkpt lat="48.70057" lon="2.19064">
        <ele>61</ele>
        <time>2016-04-26T20:22:28.000Z</time>
      </trkpt>
      <trkpt lat="48.70056" lon="2.19094">
        <ele>60</ele>
        <time>2016-04-26T20:22:42.000Z</time>
      </trkpt>
      <trkpt lat="48.70055" lon="2.19123">
        <ele>60</ele>
        <time>2016-04-26T20:22:57.000Z</time>
      </trkpt>
      <trkpt lat="48.70059" lon="2.1915">
        <ele>60</ele>
        <time>2016-04-26T20:23:09.000Z</time>
      </trkpt>
      <trkpt lat="48.70062" lon="2.19178">
        <ele>60</ele>
        <time>2016-04-26T20:23:23.000Z</time>
      </trkpt>
      <trkpt lat="48.70061" lon="2.19208">
        <ele>60</ele>
        <time>2016-04-26T20:23:36.000Z</time>
      </trkpt>
      <trkpt lat="48.70063" lon="2.19236">
        <ele>60</ele>
        <time>2016-04-26T20:23:51.000Z</time>
      </trkpt>
      <trkpt lat="48.70062" lon="2.19241">
        <ele>60</ele>
        <time>2016-04-26T20:23:55.000Z</time>
      </trkpt>
      <trkpt lat="48.70059" lon="2.19245">
        <ele>60</ele>
        <time>2016-04-26T20:23:59.000Z</time>
      </trkpt>
      <trkpt lat="48.70058" lon="2.19272">
        <ele>60</ele>
        <time>2016-04-26T20:24:16.000Z</time>
      </trkpt>
      <trkpt lat="48.7006" lon="2.1928">
        <ele>60</ele>
        <time>2016-04-26T20:24:17.000Z</time>
      </trkpt>
      <trkpt lat="48.70061" lon="2.1931">
        <ele>60</ele>
        <time>2016-04-26T20:24:28.000Z</time>
      </trkpt>
      <trkpt lat="48.7006" lon="2.19339">
        <ele>59</ele>
        <time>2016-04-26T20:24:41.000Z</time>
      </trkpt>
      <trkpt lat="48.70059" lon="2.19367">
        <ele>59</ele>
        <time>2016-04-26T20:24:53.000Z</time>
      </trkpt>
      <trkpt lat="48.70061" lon="2.19394">
        <ele>59</ele>
        <time>2016-04-26T20:25:06.000Z</time>
      </trkpt>
      <trkpt lat="48.70062" lon="2.19423">
        <ele>58</ele>
        <time>2016-04-26T20:25:20.000Z</time>
      </trkpt>
      <trkpt lat="48.70063" lon="2.19451">
        <ele>58</ele>
        <time>2016-04-26T20:25:33.000Z</time>
      </trkpt>
      <trkpt lat="48.70066" lon="2.19478">
        <ele>58</ele>
        <time>2016-04-26T20:25:47.000Z</time>
      </trkpt>
      <trkpt lat="48.70069" lon="2.19506">
        <ele>58</ele>
        <time>2016-04-26T20:26:01.000Z</time>
      </trkpt>
      <trkpt lat="48.70071" lon="2.19534">
        <ele>58</ele>
        <time>2016-04-26T20:26:15.000Z</time>
      </trkpt>
      <trkpt lat="48.70074" lon="2.19562">
        <ele>57</ele>
        <time>2016-04-26T20:26:28.000Z</time>
      </trkpt>
      <trkpt lat="48.70081" lon="2.19587">
        <ele>55</ele>
        <time>2016-04-26T20:26:42.000Z</time>
      </trkpt>
      <trkpt lat="48.70087" lon="2.19614">
        <ele>55</ele>
        <time>2016-04-26T20:26:55.000Z</time>
      </trkpt>
      <trkpt lat="48.70093" lon="2.19641">
        <ele>55</ele>
        <time>2016-04-26T20:27:07.000Z</time>
      </trkpt>
      <trkpt lat="48.70098" lon="2.19667">
        <ele>54</ele>
        <time>2016-04-26T20:27:20.000Z</time>
      </trkpt>
      <trkpt lat="48.70103" lon="2.19693">
        <ele>54</ele>
        <time>2016-04-26T20:27:33.000Z</time>
      </trkpt>
      <trkpt lat="48.7011" lon="2.1972">
        <ele>54</ele>
        <time>2016-04-26T20:27:47.000Z</time>
      </trkpt>
      <trkpt lat="48.70116" lon="2.19748">
        <ele>55</ele>
        <time>2016-04-26T20:28:00.000Z</time>
      </trkpt>
      <trkpt lat="48.70122" lon="2.19775">
        <ele>56</ele>
        <time>2016-04-26T20:28:13.000Z</time>
      </trkpt>
      <trkpt lat="48.70129" lon="2.198">
        <ele>56</ele>
        <time>2016-04-26T20:28:25.000Z</time>
      </trkpt>
      <trkpt lat="48.70134" lon="2.19827">
        <ele>56</ele>
        <time>2016-04-26T20:28:38.000Z</time>
      </trkpt>
      <trkpt lat="48.70139" lon="2.19854">
        <ele>57</ele>
        <time>2016-04-26T20:28:52.000Z</time>
      </trkpt>
      <trkpt lat="48.70145" lon="2.19881">
        <ele>57</ele>
        <time>2016-04-26T20:29:07.000Z</time>
      </trkpt>
      <trkpt lat="48.70146" lon="2.19889">
        <ele>57</ele>
        <time>2016-04-26T20:29:11.000Z</time>
      </trkpt>
      <trkpt lat="48.70151" lon="2.19916">
        <ele>56</ele>
        <time>2016-04-26T20:29:25.000Z</time>
      </trkpt>
      <trkpt lat="48.70156" lon="2.19944">
        <ele>56</ele>
        <time>2016-04-26T20:29:40.000Z</time>
      </trkpt>
      <trkpt lat="48.70161" lon="2.19971">
        <ele>56</ele>
        <time>2016-04-26T20:29:53.000Z</time>
      </trkpt>
      <trkpt lat="48.70162" lon="2.19979">
        <ele>56</ele>
        <time>2016-04-26T20:29:58.000Z</time>
      </trkpt>
      <trkpt lat="48.70168" lon="2.20005">
        <ele>56</ele>
        <time>2016-04-26T20:30:13.000Z</time>
      </trkpt>
      <trkpt lat="48.70174" lon="2.20032">
        <ele>56</ele>
        <time>2016-04-26T20:30:27.000Z</time>
      </trkpt>
      <trkpt lat="48.70179" lon="2.20059">
        <ele>55</ele>
        <time>2016-04-26T20:30:40.000Z</time>
      </trkpt>
      <trkpt lat="48.70184" lon="2.20086">
        <ele>55</ele>
        <time>2016-04-26T20:30:53.000Z</time>
      </trkpt>
      <trkpt lat="48.7019" lon="2.20113">
        <ele>55</ele>
        <time>2016-04-26T20:31:07.000Z</time>
      </trkpt>
      <trkpt lat="48.70194" lon="2.2014">
        <ele>54</ele>
        <time>2016-04-26T20:31:22.000Z</time>
      </trkpt>
      <trkpt lat="48.70201" lon="2.20166">
        <ele>54</ele>
        <time>2016-04-26T20:31:34.000Z</time>
      </trkpt>
      <trkpt lat="48.70206" lon="2.20194">
        <ele>54</ele>
        <time>2016-04-26T20:31:49.000Z</time>
      </trkpt>
      <trkpt lat="48.70214" lon="2.20219">
        <ele>54</ele>
        <time>2016-04-26T20:32:01.000Z</time>
      </trkpt>
      <trkpt lat="48.70218" lon="2.20245">
        <ele>54</ele>
        <time>2016-04-26T20:32:15.000Z</time>
      </trkpt>
      <trkpt lat="48.70218" lon="2.20246">
        <ele>54</ele>
        <time>2016-04-26T20:32:16.000Z</time>
      </trkpt>
      <trkpt lat="48.70224" lon="2.20273">
        <ele>54</ele>
        <time>2016-04-26T20:32:29.000Z</time>
      </trkpt>
      <trkpt lat="48.7023" lon="2.20299">
        <ele>54</ele>
        <time>2016-04-26T20:32:43.000Z</time>
      </trkpt>
      <trkpt lat="48.70235" lon="2.20326">
        <ele>54</ele>
        <time>2016-04-26T20:32:57.000Z</time>
      </trkpt>
      <trkpt lat="48.70241" lon="2.20354">
        <ele>54</ele>
        <time>2016-04-26T20:33:12.000Z</time>
      </trkpt>
      <trkpt lat="48.70249" lon="2.20379">
        <ele>54</ele>
        <time>2016-04-26T20:33:25.000Z</time>
      </trkpt>
      <trkpt lat="48.70256" lon="2.20404">
        <ele>54</ele>
        <time>2016-04-26T20:33:39.000Z</time>
      </trkpt>
      <trkpt lat="48.70268" lon="2.20427">
        <ele>55</ele>
        <time>2016-04-26T20:33:53.000Z</time>
      </trkpt>
      <trkpt lat="48.70276" lon="2.20451">
        <ele>55</ele>
        <time>2016-04-26T20:34:06.000Z</time>
      </trkpt>
      <trkpt lat="48.70282" lon="2.20478">
        <ele>56</ele>
        <time>2016-04-26T20:34:21.000Z</time>
      </trkpt>
      <trkpt lat="48.70289" lon="2.20504">
        <ele>56</ele>
        <time>2016-04-26T20:34:35.000Z</time>
      </trkpt>
      <trkpt lat="48.70294" lon="2.20531">
        <ele>56</ele>
        <time>2016-04-26T20:34:48.000Z</time>
      </trkpt>
      <trkpt lat="48.70303" lon="2.20556">
        <ele>56</ele>
        <time>2016-04-26T20:35:02.000Z</time>
      </trkpt>
      <trkpt lat="48.70305" lon="2.20583">
        <ele>56</ele>
        <time>2016-04-26T20:35:13.000Z</time>
      </trkpt>
      <trkpt lat="48.70305" lon="2.20611">
        <ele>55</ele>
        <time>2016-04-26T20:35:25.000Z</time>
      </trkpt>
      <trkpt lat="48.70301" lon="2.20638">
        <ele>56</ele>
        <time>2016-04-26T20:35:39.000Z</time>
      </trkpt>
      <trkpt lat="48.70297" lon="2.20666">
        <ele>56</ele>
        <time>2016-04-26T20:35:54.000Z</time>
      </trkpt>
      <trkpt lat="48.7029" lon="2.20692">
        <ele>55</ele>
        <time>2016-04-26T20:36:07.000Z</time>
      </trkpt>
      <trkpt lat="48.70287" lon="2.2072">
        <ele>55</ele>
        <time>2016-04-26T20:36:20.000Z</time>
      </trkpt>
      <trkpt lat="48.70282" lon="2.20747">
        <ele>55</ele>
        <time>2016-04-26T20:36:34.000Z</time>
      </trkpt>
      <trkpt lat="48.70275" lon="2.20773">
        <ele>55</ele>
        <time>2016-04-26T20:36:47.000Z</time>
      </trkpt>
      <trkpt lat="48.70268" lon="2.208">
        <ele>55</ele>
        <time>2016-04-26T20:37:01.000Z</time>
      </trkpt>
      <trkpt lat="48.70263" lon="2.20827">
        <ele>56</ele>
        <time>2016-04-26T20:37:14.000Z</time>
      </trkpt>
      <trkpt lat="48.70259" lon="2.20853">
        <ele>56</ele>
        <time>2016-04-26T20:37:26.000Z</time>
      </trkpt>
      <trkpt lat="48.70253" lon="2.20881">
        <ele>55</ele>
        <time>2016-04-26T20:37:40.000Z</time>
      </trkpt>
      <trkpt lat="48.70246" lon="2.20907">
        <ele>55</ele>
        <time>2016-04-26T20:37:54.000Z</time>
      </trkpt>
      <trkpt lat="48.70239" lon="2.20934">
        <ele>55</ele>
        <time>2016-04-26T20:38:09.000Z</time>
      </trkpt>
      <trkpt lat="48.70232" lon="2.20961">
        <ele>55</ele>
        <time>2016-04-26T20:38:23.000Z</time>
      </trkpt>
      <trkpt lat="48.70224" lon="2.20987">
        <ele>55</ele>
        <time>2016-04-26T20:38:36.000Z</time>
      </trkpt>
      <trkpt lat="48.70224" lon="2.20996">
        <ele>55</ele>
        <time>2016-04-26T20:38:43.000Z</time>
      </trkpt>
      <trkpt lat="48.70241" lon="2.21005">
        <ele>54</ele>
        <time>2016-04-26T20:38:58.000Z</time>
      </trkpt>
      <trkpt lat="48.70259" lon="2.21003">
        <ele>55</ele>
        <time>2016-04-26T20:39:13.000Z</time>
      </trkpt>
      <trkpt lat="48.70278" lon="2.21002">
        <ele>57</ele>
        <time>2016-04-26T20:39:27.000Z</time>
      </trkpt>
      <trkpt lat="48.70296" lon="2.20996">
        <ele>57</ele>
        <time>2016-04-26T20:39:40.000Z</time>
      </trkpt>
      <trkpt lat="48.70314" lon="2.20992">
        <ele>58</ele>
        <time>2016-04-26T20:39:55.000Z</time>
      </trkpt>
      <trkpt lat="48.70317" lon="2.20994">
        <ele>59</ele>
        <time>2016-04-26T20:39:56.000Z</time>
      </trkpt>
      <trkpt lat="48.70322" lon="2.21004">
        <ele>60</ele>
        <time>2016-04-26T20:40:03.000Z</time>
      </trkpt>
      <trkpt lat="48.70323" lon="2.21033">
        <ele>60</ele>
        <time>2016-04-26T20:40:17.000Z</time>
      </trkpt>
      <trkpt lat="48.70323" lon="2.21061">
        <ele>60</ele>
        <time>2016-04-26T20:40:31.000Z</time>
      </trkpt>
      <trkpt lat="48.70321" lon="2.21089">
        <ele>61</ele>
        <time>2016-04-26T20:40:44.000Z</time>
      </trkpt>
      <trkpt lat="48.70321" lon="2.21118">
        <ele>60</ele>
        <time>2016-04-26T20:40:58.000Z</time>
      </trkpt>
      <trkpt lat="48.70323" lon="2.21145">
        <ele>60</ele>
        <time>2016-04-26T20:41:13.000Z</time>
      </trkpt>
      <trkpt lat="48.70326" lon="2.21172">
        <ele>60</ele>
        <time>2016-04-26T20:41:26.000Z</time>
      </trkpt>
      <trkpt lat="48.70328" lon="2.212">
        <ele>59</ele>
        <time>2016-04-26T20:41:39.000Z</time>
      </trkpt>
      <trkpt lat="48.70331" lon="2.21228">
        <ele>59</ele>
        <time>2016-04-26T20:41:53.000Z</time>
      </trkpt>
      <trkpt lat="48.70333" lon="2.21244">
        <ele>60</ele>
        <time>2016-04-26T20:42:01.000Z</time>
      </trkpt>
      <trkpt lat="48.70332" lon="2.21252">
        <ele>60</ele>
        <time>2016-04-26T20:42:06.000Z</time>
      </trkpt>
      <trkpt lat="48.70336" lon="2.2128">
        <ele>64</ele>
        <time>2016-04-26T20:42:21.000Z</time>
      </trkpt>
      <trkpt lat="48.70339" lon="2.21308">
        <ele>64</ele>
        <time>2016-04-26T20:42:34.000Z</time>
      </trkpt>
      <trkpt lat="48.70342" lon="2.21337">
        <ele>64</ele>
        <time>2016-04-26T20:42:47.000Z</time>
      </trkpt>
      <trkpt lat="48.70345" lon="2.21365">
        <ele>66</ele>
        <time>2016-04-26T20:43:01.000Z</time>
      </trkpt>
      <trkpt lat="48.70348" lon="2.21394">
        <ele>66</ele>
        <time>2016-04-26T20:43:16.000Z</time>
      </trkpt>
      <trkpt lat="48.70349" lon="2.21401">
        <ele>66</ele>
        <time>2016-04-26T20:43:20.000Z</time>
      </trkpt>
      <trkpt lat="48.70354" lon="2.21428">
        <ele>67</ele>
        <time>2016-04-26T20:43:34.000Z</time>
      </trkpt>
      <trkpt lat="48.70359" lon="2.21455">
        <ele>68</ele>
        <time>2016-04-26T20:43:49.000Z</time>
      </trkpt>
      <trkpt lat="48.70362" lon="2.21483">
        <ele>68</ele>
        <time>2016-04-26T20:44:04.000Z</time>
      </trkpt>
      <trkpt lat="48.70366" lon="2.21511">
        <ele>68</ele>
        <time>2016-04-26T20:44:19.000Z</time>
      </trkpt>
      <trkpt lat="48.70371" lon="2.21538">
        <ele>68</ele>
        <time>2016-04-26T20:44:34.000Z</time>
      </trkpt>
      <trkpt lat="48.70375" lon="2.21566">
        <ele>68</ele>
        <time>2016-04-26T20:44:49.000Z</time>
      </trkpt>
      <trkpt lat="48.70376" lon="2.21578">
        <ele>68</ele>
        <time>2016-04-26T20:44:54.000Z</time>
      </trkpt>
    </trkseg>
  </trk>
</gpx>